createdAt,value
2019-03-29T00:00:38.006Z,8.71
2019-03-29T00:01:37.996Z,8.68
2019-03-29T00:02:38.745Z,8.62
2019-03-29T00:03:37.976Z,8.55
2019-03-29T00:04:38.006Z,8.54
2019-03-29T00:05:37.963Z,8.50
2019-03-29T00:06:37.935Z,8.47
2019-03-29T00:07:39.743Z,8.44
2019-03-29T00:08:38.213Z,8.37
2019-03-29T00:09:38.670Z,8.37
2019-03-29T00:10:37.945Z,8.37
2019-03-29T00:11:38.227Z,8.37
2019-03-29T00:12:37.875Z,8.36
2019-03-29T00:13:37.866Z,8.33
2019-03-29T00:14:37.855Z,8.32
2019-03-29T00:15:38.137Z,8.28
2019-03-29T00:16:38.165Z,8.30
2019-03-29T00:17:37.833Z,8.32
2019-03-29T00:18:37.814Z,8.33
2019-03-29T00:19:37.806Z,8.33
2019-03-29T00:20:37.795Z,8.30
2019-03-29T00:21:39.087Z,8.29
2019-03-29T00:22:38.103Z,8.28
2019-03-29T00:23:37.763Z,8.26
2019-03-29T00:24:37.752Z,8.22
2019-03-29T00:25:37.754Z,8.25
2019-03-29T00:26:37.733Z,8.25
2019-03-29T00:27:37.720Z,8.25
2019-03-29T00:28:37.762Z,8.21
2019-03-29T00:29:37.986Z,8.20
2019-03-29T00:30:37.693Z,8.17
2019-03-29T00:31:37.680Z,8.17
2019-03-29T00:32:37.671Z,8.14
2019-03-29T00:33:37.653Z,8.14
2019-03-29T00:34:37.703Z,8.08
2019-03-29T00:35:37.632Z,8.02
2019-03-29T00:36:38.826Z,7.99
2019-03-29T00:37:37.625Z,7.97
2019-03-29T00:38:37.603Z,7.94
2019-03-29T00:39:37.592Z,7.94
2019-03-29T00:40:37.631Z,7.92
2019-03-29T00:41:37.572Z,7.87
2019-03-29T00:42:37.562Z,7.74
2019-03-29T00:43:37.831Z,7.69
2019-03-29T00:44:37.541Z,7.62
2019-03-29T00:45:37.532Z,7.58
2019-03-29T00:46:37.896Z,7.58
2019-03-29T00:47:37.512Z,7.58
2019-03-29T00:48:37.493Z,7.58
2019-03-29T00:49:37.490Z,7.59
2019-03-29T00:50:37.791Z,7.60
2019-03-29T00:51:37.468Z,7.62
2019-03-29T00:52:37.760Z,7.62
2019-03-29T00:53:37.448Z,7.59
2019-03-29T00:54:37.430Z,7.59
2019-03-29T00:55:37.420Z,7.58
2019-03-29T00:56:37.410Z,7.56
2019-03-29T00:57:37.680Z,7.56
2019-03-29T00:58:37.429Z,7.58
2019-03-29T00:59:37.381Z,7.53
2019-03-29T01:00:38.270Z,7.52
2019-03-29T01:01:37.369Z,7.49
2019-03-29T01:02:37.350Z,7.45
2019-03-29T01:03:37.365Z,7.40
2019-03-29T01:04:37.656Z,7.32
2019-03-29T01:05:37.310Z,7.20
2019-03-29T01:06:37.309Z,7.13
2019-03-29T01:07:37.290Z,7.09
2019-03-29T01:08:37.315Z,7.12
2019-03-29T01:09:37.809Z,7.08
2019-03-29T01:10:37.311Z,7.08
2019-03-29T01:11:37.538Z,7.08
2019-03-29T01:12:37.248Z,7.12
2019-03-29T01:13:37.797Z,7.13
2019-03-29T01:14:37.218Z,7.17
2019-03-29T01:15:37.950Z,7.17
2019-03-29T01:16:37.249Z,7.16
2019-03-29T01:17:37.188Z,7.16
2019-03-29T01:18:39.640Z,7.13
2019-03-29T01:19:37.168Z,7.07
2019-03-29T01:20:37.175Z,7.08
2019-03-29T01:21:37.149Z,7.09
2019-03-29T01:22:37.197Z,7.09
2019-03-29T01:23:37.128Z,7.09
2019-03-29T01:24:37.967Z,7.13
2019-03-29T01:25:37.429Z,7.15
2019-03-29T01:26:37.094Z,7.16
2019-03-29T01:27:37.077Z,7.17
2019-03-29T01:28:38.550Z,7.19
2019-03-29T01:29:37.070Z,7.17
2019-03-29T01:30:37.047Z,7.17
2019-03-29T01:31:37.038Z,7.17
2019-03-29T01:32:37.336Z,7.17
2019-03-29T01:33:37.024Z,7.16
2019-03-29T01:34:37.048Z,7.15
2019-03-29T01:35:37.000Z,7.16
2019-03-29T01:36:36.986Z,7.15
2019-03-29T01:37:36.976Z,7.08
2019-03-29T01:38:36.965Z,7.08
2019-03-29T01:39:37.235Z,7.04
2019-03-29T01:40:36.989Z,6.97
2019-03-29T01:41:36.936Z,6.89
2019-03-29T01:42:37.883Z,6.77
2019-03-29T01:43:36.918Z,6.71
2019-03-29T01:44:36.905Z,6.66
2019-03-29T01:45:36.893Z,6.61
2019-03-29T01:46:37.981Z,6.58
2019-03-29T01:47:36.868Z,6.62
2019-03-29T01:48:36.855Z,6.62
2019-03-29T01:49:37.416Z,6.65
2019-03-29T01:50:36.838Z,6.63
2019-03-29T01:51:36.834Z,6.66
2019-03-29T01:52:36.865Z,6.71
2019-03-29T01:53:38.210Z,6.73
2019-03-29T01:54:36.802Z,6.77
2019-03-29T01:55:36.794Z,6.79
2019-03-29T01:56:36.781Z,6.84
2019-03-29T01:57:36.770Z,6.83
2019-03-29T01:58:36.793Z,6.83
2019-03-29T01:59:36.744Z,6.84
2019-03-29T02:00:37.013Z,6.83
2019-03-29T02:01:36.724Z,6.81
2019-03-29T02:02:36.713Z,6.81
2019-03-29T02:03:36.722Z,6.80
2019-03-29T02:04:36.753Z,6.79
2019-03-29T02:05:36.683Z,6.77
2019-03-29T02:06:36.682Z,6.76
2019-03-29T02:07:37.988Z,6.77
2019-03-29T02:08:37.817Z,6.73
2019-03-29T02:09:36.647Z,6.76
2019-03-29T02:10:36.677Z,6.76
2019-03-29T02:11:36.621Z,6.76
2019-03-29T02:12:36.612Z,6.79
2019-03-29T02:13:36.606Z,6.81
2019-03-29T02:14:36.883Z,6.81
2019-03-29T02:15:37.197Z,6.81
2019-03-29T02:16:36.933Z,6.80
2019-03-29T02:17:36.558Z,6.81
2019-03-29T02:18:36.557Z,6.80
2019-03-29T02:19:36.540Z,6.76
2019-03-29T02:20:36.532Z,6.69
2019-03-29T02:21:36.805Z,6.65
2019-03-29T02:22:37.088Z,6.62
2019-03-29T02:23:36.505Z,6.58
2019-03-29T02:24:36.490Z,6.50
2019-03-29T02:25:36.479Z,6.47
2019-03-29T02:26:36.467Z,6.44
2019-03-29T02:27:36.459Z,6.30
2019-03-29T02:28:36.760Z,6.19
2019-03-29T02:29:36.964Z,6.16
2019-03-29T02:30:36.438Z,6.13
2019-03-29T02:31:36.422Z,6.10
2019-03-29T02:32:36.412Z,6.11
2019-03-29T02:33:36.391Z,6.13
2019-03-29T02:34:36.429Z,6.14
2019-03-29T02:35:38.475Z,6.19
2019-03-29T02:36:36.361Z,6.21
2019-03-29T02:37:36.356Z,6.19
2019-03-29T02:38:47.494Z,6.22
2019-03-29T02:39:37.391Z,6.26
2019-03-29T02:40:36.332Z,6.25
2019-03-29T02:41:36.612Z,6.26
2019-03-29T02:42:36.308Z,6.25
2019-03-29T02:43:36.290Z,6.25
2019-03-29T02:44:36.289Z,6.28
2019-03-29T02:45:36.309Z,6.29
2019-03-29T02:46:36.281Z,6.28
2019-03-29T02:47:37.129Z,6.29
2019-03-29T02:48:36.548Z,6.29
2019-03-29T02:49:36.228Z,6.28
2019-03-29T02:50:36.844Z,6.26
2019-03-29T02:51:36.258Z,6.22
2019-03-29T02:52:36.202Z,6.25
2019-03-29T02:53:36.198Z,6.21
2019-03-29T02:54:36.182Z,6.19
2019-03-29T02:55:36.467Z,6.21
2019-03-29T02:56:36.158Z,6.18
2019-03-29T02:57:36.449Z,6.18
2019-03-29T02:58:36.145Z,6.16
2019-03-29T02:59:36.139Z,6.10
2019-03-29T03:01:57.652Z,6.04
2019-03-29T03:02:57.408Z,6.06
2019-03-29T03:03:57.409Z,6.07
2019-03-29T03:04:57.397Z,6.09
2019-03-29T03:05:57.396Z,6.11
2019-03-29T03:06:57.501Z,6.16
2019-03-29T03:07:57.689Z,6.21
2019-03-29T03:09:12.312Z,6.21
2019-03-29T03:09:58.345Z,6.21
2019-03-29T03:10:57.336Z,6.21
2019-03-29T03:11:57.318Z,6.21
2019-03-29T03:12:57.326Z,6.19
2019-03-29T03:13:57.347Z,6.18
2019-03-29T03:14:57.579Z,6.10
2019-03-29T03:15:57.276Z,6.09
2019-03-29T03:16:57.274Z,6.09
2019-03-29T03:17:57.257Z,6.03
2019-03-29T03:18:57.257Z,5.98
2019-03-29T03:19:57.576Z,5.96
2019-03-29T03:20:57.231Z,5.95
2019-03-29T03:21:57.505Z,5.96
2019-03-29T03:22:57.205Z,5.96
2019-03-29T03:23:57.197Z,6.00
2019-03-29T03:24:57.214Z,6.00
2019-03-29T03:25:57.234Z,6.01
2019-03-29T03:26:57.190Z,6.01
2019-03-29T03:27:57.156Z,6.01
2019-03-29T03:28:57.455Z,6.01
2019-03-29T03:29:57.137Z,6.01
2019-03-29T03:30:57.141Z,6.00
2019-03-29T03:31:57.178Z,5.96
2019-03-29T03:32:57.161Z,5.93
2019-03-29T03:33:57.094Z,5.91
2019-03-29T03:34:57.086Z,5.88
2019-03-29T03:35:57.385Z,5.83
2019-03-29T03:36:57.073Z,5.83
2019-03-29T03:37:57.134Z,5.85
2019-03-29T03:38:57.050Z,5.86
2019-03-29T03:39:57.044Z,5.86
2019-03-29T03:40:57.026Z,5.88
2019-03-29T03:41:57.013Z,5.89
2019-03-29T03:42:57.293Z,5.85
2019-03-29T03:43:57.048Z,5.83
2019-03-29T03:44:56.986Z,5.85
2019-03-29T03:45:56.976Z,5.88
2019-03-29T03:46:56.964Z,5.89
2019-03-29T03:47:56.969Z,5.89
2019-03-29T03:48:56.943Z,5.91
2019-03-29T03:50:00.626Z,5.89
2019-03-29T03:50:56.935Z,5.88
2019-03-29T03:51:56.902Z,5.88
2019-03-29T03:52:56.901Z,5.85
2019-03-29T03:53:56.889Z,5.85
2019-03-29T03:54:56.880Z,5.82
2019-03-29T03:55:57.461Z,5.78
2019-03-29T03:56:56.862Z,5.75
2019-03-29T03:57:57.889Z,5.70
2019-03-29T03:58:56.840Z,5.71
2019-03-29T03:59:56.831Z,5.67
2019-03-29T04:00:56.831Z,5.66
2019-03-29T04:01:56.932Z,5.64
2019-03-29T04:02:57.659Z,5.64
2019-03-29T04:03:56.787Z,5.64
2019-03-29T04:04:56.777Z,5.67
2019-03-29T04:05:56.772Z,5.68
2019-03-29T04:06:56.755Z,5.68
2019-03-29T04:07:56.838Z,5.67
2019-03-29T04:08:56.819Z,5.70
2019-03-29T04:09:57.031Z,5.71
2019-03-29T04:10:56.716Z,5.73
2019-03-29T04:11:56.698Z,5.71
2019-03-29T04:12:56.697Z,5.70
2019-03-29T04:13:56.771Z,5.73
2019-03-29T04:14:56.674Z,5.67
2019-03-29T04:15:56.676Z,5.64
2019-03-29T04:16:56.928Z,5.63
2019-03-29T04:17:56.637Z,5.63
2019-03-29T04:18:56.637Z,5.60
2019-03-29T04:19:56.681Z,5.60
2019-03-29T04:20:56.614Z,5.57
2019-03-29T04:21:56.596Z,5.50
2019-03-29T04:22:56.586Z,5.49
2019-03-29T04:23:56.874Z,5.50
2019-03-29T04:24:56.566Z,5.50
2019-03-29T04:25:56.703Z,5.52
2019-03-29T04:26:56.558Z,5.50
2019-03-29T04:27:56.536Z,5.49
2019-03-29T04:29:04.206Z,5.50
2019-03-29T04:29:57.525Z,5.50
2019-03-29T04:30:56.813Z,5.52
2019-03-29T04:31:56.566Z,5.53
2019-03-29T04:32:56.504Z,5.52
2019-03-29T04:33:56.495Z,5.52
2019-03-29T04:34:56.466Z,5.53
2019-03-29T04:35:56.456Z,5.53
2019-03-29T04:36:56.448Z,5.55
2019-03-29T04:37:56.775Z,5.50
2019-03-29T04:38:56.454Z,5.50
2019-03-29T04:40:07.025Z,5.46
2019-03-29T04:40:57.385Z,5.45
2019-03-29T04:41:56.382Z,5.43
2019-03-29T04:42:56.384Z,5.41
2019-03-29T04:43:56.413Z,5.38
2019-03-29T04:44:59.640Z,5.40
2019-03-29T04:45:56.346Z,5.45
2019-03-29T04:46:56.344Z,5.50
2019-03-29T04:47:56.313Z,5.52
2019-03-29T04:48:56.314Z,5.56
2019-03-29T04:49:56.369Z,5.56
2019-03-29T04:50:56.300Z,5.53
2019-03-29T04:51:56.591Z,5.55
2019-03-29T04:52:56.276Z,5.55
2019-03-29T04:53:56.286Z,5.57
2019-03-29T04:54:56.241Z,5.57
2019-03-29T04:55:56.275Z,5.55
2019-03-29T04:56:56.231Z,5.56
2019-03-29T04:57:56.212Z,5.56
2019-03-29T04:58:56.483Z,5.55
2019-03-29T04:59:56.191Z,5.59
2019-03-29T05:00:56.192Z,5.60
2019-03-29T05:01:56.220Z,5.59
2019-03-29T05:02:56.160Z,5.59
2019-03-29T05:03:56.150Z,5.59
2019-03-29T05:04:56.142Z,5.59
2019-03-29T05:05:57.440Z,5.57
2019-03-29T05:06:56.130Z,5.57
2019-03-29T05:07:56.170Z,5.53
2019-03-29T05:08:56.103Z,5.52
2019-03-29T05:09:56.089Z,5.49
2019-03-29T05:10:56.082Z,5.46
2019-03-29T05:11:56.089Z,5.43
2019-03-29T05:12:59.487Z,5.38
2019-03-29T05:13:56.117Z,5.35
2019-03-29T05:14:56.056Z,5.25
2019-03-29T05:15:56.067Z,5.19
2019-03-29T05:16:56.019Z,5.14
2019-03-29T05:17:56.067Z,5.09
2019-03-29T05:18:56.009Z,5.09
2019-03-29T05:19:56.320Z,5.04
2019-03-29T05:20:56.023Z,5.02
2019-03-29T05:21:55.985Z,4.98
2019-03-29T05:22:55.955Z,4.96
2019-03-29T05:23:56.043Z,4.99
2019-03-29T05:24:55.946Z,5.04
2019-03-29T05:25:56.136Z,5.10
2019-03-29T05:26:57.527Z,5.12
2019-03-29T05:27:55.926Z,5.14
2019-03-29T05:28:55.924Z,5.13
2019-03-29T05:29:55.883Z,5.10
2019-03-29T05:30:55.916Z,5.09
2019-03-29T05:31:55.923Z,5.07
2019-03-29T05:32:55.880Z,5.05
2019-03-29T05:33:57.096Z,5.05
2019-03-29T05:34:55.836Z,5.04
2019-03-29T05:35:55.862Z,5.05
2019-03-29T05:36:58.273Z,5.04
2019-03-29T05:37:55.893Z,5.04
2019-03-29T05:38:55.820Z,5.09
2019-03-29T05:39:55.802Z,5.09
2019-03-29T05:40:56.181Z,5.09
2019-03-29T05:41:55.754Z,5.09
2019-03-29T05:42:55.744Z,5.12
2019-03-29T05:43:55.795Z,5.14
2019-03-29T05:44:55.789Z,5.16
2019-03-29T05:45:55.724Z,5.22
2019-03-29T05:46:55.737Z,5.27
2019-03-29T05:47:56.030Z,5.27
2019-03-29T05:48:55.717Z,5.27
2019-03-29T05:49:55.758Z,5.28
2019-03-29T05:50:55.676Z,5.31
2019-03-29T05:51:55.684Z,5.34
2019-03-29T05:52:55.771Z,5.37
2019-03-29T05:53:55.695Z,5.38
2019-03-29T05:54:55.952Z,5.43
2019-03-29T05:55:55.747Z,5.41
2019-03-29T05:56:55.629Z,5.37
2019-03-29T05:57:55.600Z,5.37
2019-03-29T05:58:55.617Z,5.41
2019-03-29T05:59:55.678Z,5.45
2019-03-29T06:00:55.583Z,5.49
2019-03-29T06:01:55.622Z,5.53
2019-03-29T06:02:55.691Z,5.60
2019-03-29T06:03:55.535Z,5.68
2019-03-29T06:04:55.530Z,5.71
2019-03-29T06:05:55.520Z,5.75
2019-03-29T06:06:55.510Z,5.77
2019-03-29T06:07:56.030Z,5.77
2019-03-29T06:08:55.490Z,5.83
2019-03-29T06:09:55.473Z,5.86
2019-03-29T06:10:55.460Z,5.89
2019-03-29T06:11:55.450Z,5.92
2019-03-29T06:12:55.446Z,5.93
2019-03-29T06:13:55.481Z,5.96
2019-03-29T06:14:55.422Z,5.98
2019-03-29T06:15:55.430Z,6.00
2019-03-29T06:16:55.418Z,5.96
2019-03-29T06:17:55.417Z,5.96
2019-03-29T06:18:55.400Z,5.93
2019-03-29T06:19:55.797Z,5.96
2019-03-29T06:20:55.418Z,6.01
2019-03-29T06:21:55.361Z,6.09
2019-03-29T06:22:55.359Z,6.13
2019-03-29T06:23:55.327Z,6.18
2019-03-29T06:24:55.848Z,6.28
2019-03-29T06:25:57.399Z,6.41
2019-03-29T06:26:55.316Z,6.47
2019-03-29T06:27:55.300Z,6.56
2019-03-29T06:28:55.277Z,6.65
2019-03-29T06:29:55.284Z,6.72
2019-03-29T06:30:55.267Z,6.84
2019-03-29T06:31:56.088Z,6.95
2019-03-29T06:32:55.247Z,7.05
2019-03-29T06:33:55.233Z,7.09
2019-03-29T06:34:55.217Z,7.17
2019-03-29T06:35:55.488Z,7.26
2019-03-29T06:36:55.206Z,7.35
2019-03-29T06:37:55.543Z,7.47
2019-03-29T06:38:55.176Z,7.50
2019-03-29T06:39:55.166Z,7.56
2019-03-29T06:41:02.679Z,7.72
2019-03-29T06:41:56.227Z,7.79
2019-03-29T06:42:55.153Z,7.87
2019-03-29T06:43:55.145Z,8.04
2019-03-29T06:44:55.525Z,8.17
2019-03-29T06:45:55.866Z,8.22
2019-03-29T06:46:55.085Z,8.22
2019-03-29T06:47:55.081Z,8.37
2019-03-29T06:48:55.072Z,8.57
2019-03-29T06:49:55.122Z,8.72
2019-03-29T06:50:55.045Z,8.86
2019-03-29T06:51:55.324Z,8.88
2019-03-29T06:52:55.883Z,9.01
2019-03-29T06:53:55.890Z,9.06
2019-03-29T06:54:55.033Z,9.12
2019-03-29T06:55:55.082Z,9.20
2019-03-29T06:56:55.097Z,9.27
2019-03-29T06:57:55.288Z,9.40
2019-03-29T06:58:55.363Z,9.56
2019-03-29T06:59:54.960Z,9.61
2019-03-29T07:00:54.993Z,9.71
2019-03-29T07:01:54.976Z,9.68
2019-03-29T07:02:55.123Z,9.81
2019-03-29T07:03:55.072Z,9.97
2019-03-29T07:04:54.914Z,10.33
2019-03-29T07:05:55.515Z,10.52
2019-03-29T07:06:55.209Z,10.80
2019-03-29T07:07:55.131Z,11.06
2019-03-29T07:08:55.195Z,11.21
2019-03-29T07:09:55.513Z,11.39
2019-03-29T07:10:54.839Z,11.39
2019-03-29T07:11:54.825Z,11.59
2019-03-29T07:12:56.568Z,11.71
2019-03-29T07:13:57.675Z,11.77
2019-03-29T07:14:54.804Z,12.15
2019-03-29T07:15:54.803Z,12.37
2019-03-29T07:16:54.778Z,12.79
2019-03-29T07:17:54.786Z,12.96
2019-03-29T07:18:54.769Z,13.06
2019-03-29T07:19:55.630Z,13.33
2019-03-29T07:20:54.730Z,13.29
2019-03-29T07:21:54.732Z,13.46
2019-03-29T07:22:54.721Z,13.47
2019-03-29T07:23:54.706Z,13.88
2019-03-29T07:24:54.829Z,14.16
2019-03-29T07:25:56.458Z,14.61
2019-03-29T07:26:55.033Z,14.86
2019-03-29T07:27:54.721Z,15.09
2019-03-29T07:28:54.668Z,15.21
2019-03-29T07:29:54.639Z,15.56
2019-03-29T07:30:54.630Z,15.60
2019-03-29T07:31:54.845Z,15.48
2019-03-29T07:32:54.612Z,15.67
2019-03-29T07:33:55.030Z,15.43
2019-03-29T07:34:54.582Z,15.09
2019-03-29T07:35:54.581Z,14.74
2019-03-29T07:36:54.697Z,14.99
2019-03-29T07:37:54.589Z,15.23
2019-03-29T07:38:54.566Z,15.12
2019-03-29T07:39:54.576Z,15.20
2019-03-29T07:40:54.827Z,15.64
2019-03-29T07:41:54.520Z,16.30
2019-03-29T07:42:54.548Z,16.85
2019-03-29T07:43:55.096Z,17.06
2019-03-29T07:44:54.486Z,16.89
2019-03-29T07:45:54.479Z,17.30
2019-03-29T07:46:54.469Z,17.81
2019-03-29T07:47:54.474Z,18.03
2019-03-29T07:48:54.494Z,17.88
2019-03-29T07:49:54.683Z,17.94
2019-03-29T07:50:54.508Z,18.43
2019-03-29T07:51:54.417Z,18.18
2019-03-29T07:52:54.498Z,17.63
2019-03-29T07:53:55.761Z,17.71
2019-03-29T07:54:54.392Z,17.69
2019-03-29T07:55:54.389Z,18.31
2019-03-29T07:56:54.376Z,18.94
2019-03-29T07:57:54.346Z,19.32
2019-03-29T07:58:55.316Z,19.68
2019-03-29T07:59:57.316Z,19.73
2019-03-29T08:00:54.379Z,19.33
2019-03-29T08:01:54.370Z,18.99
2019-03-29T08:02:55.202Z,19.10
2019-03-29T08:03:54.285Z,19.39
2019-03-29T08:04:54.268Z,19.66
2019-03-29T08:05:55.780Z,19.68
2019-03-29T08:06:54.569Z,19.28
2019-03-29T08:07:55.216Z,19.23
2019-03-29T08:08:54.268Z,19.84
2019-03-29T08:09:54.505Z,19.39
2019-03-29T08:10:54.928Z,19.14
2019-03-29T08:11:55.340Z,18.91
2019-03-29T08:12:54.190Z,19.20
2019-03-29T08:13:55.070Z,20.13
2019-03-29T08:14:54.799Z,21.04
2019-03-29T08:15:54.979Z,21.72
2019-03-29T08:16:54.820Z,22.22
2019-03-29T08:17:55.948Z,22.23
2019-03-29T08:18:54.517Z,22.60
2019-03-29T08:20:13.340Z,23.17
2019-03-29T08:20:55.567Z,23.65
2019-03-29T08:21:57.680Z,23.67
2019-03-29T08:22:55.631Z,23.39
2019-03-29T08:23:55.304Z,23.50
2019-03-29T08:24:54.391Z,23.89
2019-03-29T08:25:54.470Z,23.72
2019-03-29T08:26:55.098Z,24.00
2019-03-29T08:27:54.049Z,24.19
2019-03-29T08:28:54.419Z,24.44
2019-03-29T08:29:54.017Z,24.67
2019-03-29T08:30:53.998Z,24.44
2019-03-29T08:31:55.729Z,24.77
2019-03-29T08:32:53.977Z,24.92
2019-03-29T08:33:53.978Z,25.07
2019-03-29T08:34:53.957Z,25.16
2019-03-29T08:35:53.973Z,25.37
2019-03-29T08:36:53.940Z,25.68
2019-03-29T08:37:54.638Z,25.38
2019-03-29T08:38:53.909Z,25.02
2019-03-29T08:39:56.453Z,25.13
2019-03-29T08:40:54.500Z,24.82
2019-03-29T08:41:59.929Z,24.05
2019-03-29T08:42:55.039Z,23.95
2019-03-29T08:43:53.858Z,24.52
2019-03-29T08:44:54.748Z,24.60
2019-03-29T08:45:57.444Z,25.24
2019-03-29T08:46:54.360Z,25.53
2019-03-29T08:47:55.489Z,25.79
2019-03-29T08:48:54.863Z,26.25
2019-03-29T08:49:56.599Z,26.25
2019-03-29T08:50:54.951Z,26.52
2019-03-29T08:51:55.004Z,26.77
2019-03-29T08:52:54.087Z,26.96
2019-03-29T08:53:54.201Z,26.62
2019-03-29T08:54:54.092Z,26.92
2019-03-29T08:55:53.950Z,27.23
2019-03-29T08:56:53.764Z,27.20
2019-03-29T08:57:53.754Z,27.42
2019-03-29T08:58:54.375Z,27.66
2019-03-29T08:59:54.000Z,27.50
2019-03-29T09:00:55.082Z,27.42
2019-03-29T09:01:54.045Z,27.36
2019-03-29T09:02:53.662Z,26.68
2019-03-29T09:04:04.875Z,26.11
2019-03-29T09:04:54.701Z,25.09
2019-03-29T09:05:54.020Z,23.76
2019-03-29T09:06:54.365Z,21.95
2019-03-29T09:07:53.619Z,20.12
2019-03-29T09:08:54.795Z,18.86
2019-03-29T09:09:53.591Z,17.82
2019-03-29T09:10:53.602Z,17.18
2019-03-29T09:11:53.605Z,16.78
2019-03-29T09:12:53.600Z,16.31
2019-03-29T09:13:53.608Z,15.99
2019-03-29T09:14:53.539Z,15.85
2019-03-29T09:15:53.531Z,15.82
2019-03-29T09:16:53.600Z,15.81
2019-03-29T09:17:53.508Z,15.68
2019-03-29T09:18:54.110Z,15.60
2019-03-29T09:19:53.526Z,15.49
2019-03-29T09:20:53.521Z,15.56
2019-03-29T09:21:53.536Z,15.68
2019-03-29T09:22:53.470Z,15.68
2019-03-29T09:23:53.463Z,15.63
2019-03-29T09:24:53.534Z,15.64
2019-03-29T09:25:53.811Z,15.63
2019-03-29T09:26:53.428Z,15.63
2019-03-29T09:27:54.038Z,15.74
2019-03-29T09:28:53.724Z,15.67
2019-03-29T09:29:53.731Z,15.54
2019-03-29T09:30:56.504Z,15.41
2019-03-29T09:31:54.456Z,15.36
2019-03-29T09:32:53.909Z,15.41
2019-03-29T09:33:58.417Z,15.43
2019-03-29T09:34:53.807Z,15.42
2019-03-29T09:35:53.801Z,15.45
2019-03-29T09:36:54.925Z,15.54
2019-03-29T09:37:56.434Z,15.48
2019-03-29T09:38:53.423Z,15.31
2019-03-29T09:39:53.278Z,15.36
2019-03-29T09:40:58.696Z,15.17
2019-03-29T09:41:54.701Z,15.26
2019-03-29T09:43:06.862Z,15.36
2019-03-29T09:43:54.797Z,15.54
2019-03-29T09:44:53.671Z,15.68
2019-03-29T09:45:53.227Z,15.76
2019-03-29T09:46:53.211Z,15.70
2019-03-29T09:47:55.757Z,15.54
2019-03-29T09:48:54.046Z,15.31
2019-03-29T09:49:53.652Z,15.13
2019-03-29T09:50:53.992Z,15.19
2019-03-29T09:51:53.173Z,15.39
2019-03-29T09:52:53.144Z,15.54
2019-03-29T09:53:53.138Z,15.63
2019-03-29T09:54:54.124Z,15.64
2019-03-29T09:55:53.624Z,15.57
2019-03-29T09:56:53.460Z,15.61
2019-03-29T09:57:53.091Z,15.66
2019-03-29T09:58:53.179Z,15.75
2019-03-29T09:59:53.491Z,15.79
2019-03-29T10:00:53.110Z,15.51
2019-03-29T10:01:54.237Z,15.15
2019-03-29T10:02:53.067Z,15.11
2019-03-29T10:03:53.551Z,14.99
2019-03-29T10:04:53.985Z,14.84
2019-03-29T10:05:53.444Z,15.13
2019-03-29T10:06:55.120Z,15.38
2019-03-29T10:07:53.300Z,15.51
2019-03-29T10:08:53.770Z,15.48
2019-03-29T10:09:53.858Z,15.43
2019-03-29T10:10:53.275Z,15.35
2019-03-29T10:11:53.275Z,15.31
2019-03-29T10:12:53.781Z,15.54
2019-03-29T10:13:52.960Z,15.74
2019-03-29T10:14:52.941Z,15.94
2019-03-29T10:15:52.897Z,16.06
2019-03-29T10:16:53.002Z,16.09
2019-03-29T10:17:53.302Z,15.97
2019-03-29T10:18:54.107Z,15.99
2019-03-29T10:19:53.818Z,16.03
2019-03-29T10:20:52.840Z,16.03
2019-03-29T10:21:52.870Z,15.92
2019-03-29T10:22:53.812Z,15.59
2019-03-29T10:23:52.986Z,15.43
2019-03-29T10:24:53.340Z,15.35
2019-03-29T10:25:52.792Z,15.33
2019-03-29T10:26:52.781Z,15.35
2019-03-29T10:27:52.941Z,15.41
2019-03-29T10:28:52.831Z,15.60
2019-03-29T10:29:52.759Z,15.92
2019-03-29T10:30:52.891Z,16.35
2019-03-29T10:31:52.739Z,16.98
2019-03-29T10:32:55.336Z,17.81
2019-03-29T10:33:52.723Z,18.67
2019-03-29T10:34:52.735Z,19.33
2019-03-29T10:35:53.203Z,20.05
2019-03-29T10:36:52.770Z,20.62
2019-03-29T10:37:54.095Z,21.60
2019-03-29T10:38:52.696Z,22.09
2019-03-29T10:39:52.683Z,22.14
2019-03-29T10:40:53.183Z,23.17
2019-03-29T10:41:52.620Z,23.94
2019-03-29T10:42:58.209Z,25.42
2019-03-29T10:43:53.646Z,26.17
2019-03-29T10:44:53.072Z,26.27
2019-03-29T10:45:52.610Z,27.42
2019-03-29T10:46:52.573Z,26.72
2019-03-29T10:47:53.011Z,26.65
2019-03-29T10:48:52.677Z,25.39
2019-03-29T10:49:52.611Z,25.91
2019-03-29T10:50:52.521Z,25.43
2019-03-29T10:51:52.917Z,25.61
2019-03-29T10:52:52.563Z,25.89
2019-03-29T10:53:52.674Z,26.12
2019-03-29T10:54:52.571Z,27.19
2019-03-29T10:55:52.639Z,27.39
2019-03-29T10:56:52.499Z,27.51
2019-03-29T10:57:52.514Z,27.43
2019-03-29T10:58:52.483Z,27.51
2019-03-29T10:59:52.476Z,26.87
2019-03-29T11:00:52.482Z,27.24
2019-03-29T11:01:52.427Z,28.36
2019-03-29T11:02:52.414Z,28.70
2019-03-29T11:03:52.432Z,29.03
2019-03-29T11:04:53.304Z,29.94
2019-03-29T11:05:52.396Z,30.80
2019-03-29T11:06:52.447Z,30.75
2019-03-29T11:07:52.539Z,30.53
2019-03-29T11:08:52.367Z,30.36
2019-03-29T11:09:52.495Z,29.94
2019-03-29T11:10:52.332Z,29.23
2019-03-29T11:11:52.697Z,29.13
2019-03-29T11:12:52.364Z,29.56
2019-03-29T11:13:52.342Z,28.80
2019-03-29T11:14:52.307Z,27.96
2019-03-29T11:15:52.329Z,28.10
2019-03-29T11:16:52.311Z,27.79
2019-03-29T11:17:52.324Z,26.98
2019-03-29T11:18:52.806Z,26.29
2019-03-29T11:19:52.265Z,26.15
2019-03-29T11:20:52.260Z,26.17
2019-03-29T11:21:52.230Z,26.25
2019-03-29T11:22:52.816Z,26.28
2019-03-29T11:23:52.474Z,26.35
2019-03-29T11:24:52.939Z,27.06
2019-03-29T11:25:53.340Z,27.10
2019-03-29T11:26:52.570Z,26.81
2019-03-29T11:27:53.097Z,27.04
2019-03-29T11:28:53.142Z,27.91
2019-03-29T11:29:53.213Z,29.44
2019-03-29T11:30:57.051Z,30.59
2019-03-29T11:31:52.999Z,31.11
2019-03-29T11:32:52.839Z,31.70
2019-03-29T11:33:52.860Z,31.26
2019-03-29T11:34:52.657Z,30.69
2019-03-29T11:35:52.081Z,29.74
2019-03-29T11:36:52.835Z,28.66
2019-03-29T11:37:52.062Z,29.16
2019-03-29T11:38:52.077Z,28.77
2019-03-29T11:39:52.428Z,28.87
2019-03-29T11:40:53.116Z,29.77
2019-03-29T11:41:52.029Z,29.25
2019-03-29T11:42:52.152Z,28.01
2019-03-29T11:43:52.070Z,27.64
2019-03-29T11:44:52.534Z,27.84
2019-03-29T11:45:51.990Z,27.94
2019-03-29T11:46:52.862Z,27.82
2019-03-29T11:47:52.003Z,27.69
2019-03-29T11:48:51.990Z,26.72
2019-03-29T11:49:55.267Z,26.31
2019-03-29T11:50:52.093Z,26.02
2019-03-29T11:51:51.939Z,26.49
2019-03-29T11:52:52.233Z,26.49
2019-03-29T11:53:52.330Z,26.98
2019-03-29T11:54:52.012Z,27.96
2019-03-29T11:55:52.576Z,26.94
2019-03-29T11:56:52.451Z,27.86
2019-03-29T11:57:55.675Z,28.46
2019-03-29T11:58:52.928Z,29.59
2019-03-29T11:59:52.308Z,30.49
2019-03-29T12:00:53.037Z,30.18
2019-03-29T12:01:51.842Z,28.81
2019-03-29T12:02:51.832Z,27.89
2019-03-29T12:03:51.972Z,27.02
2019-03-29T12:04:51.813Z,27.94
2019-03-29T12:05:52.493Z,27.42
2019-03-29T12:06:51.835Z,27.01
2019-03-29T12:07:53.065Z,26.40
2019-03-29T12:08:51.846Z,26.28
2019-03-29T12:09:52.617Z,26.29
2019-03-29T12:10:52.269Z,26.89
2019-03-29T12:11:52.635Z,27.43
2019-03-29T12:12:53.263Z,28.22
2019-03-29T12:14:04.995Z,27.48
2019-03-29T12:14:52.919Z,27.53
2019-03-29T12:15:52.899Z,28.73
2019-03-29T12:16:51.695Z,30.26
2019-03-29T12:17:51.694Z,31.18
2019-03-29T12:18:52.416Z,30.69
2019-03-29T12:19:52.284Z,30.33
2019-03-29T12:20:54.314Z,30.80
2019-03-29T12:21:52.134Z,31.58
2019-03-29T12:22:51.946Z,32.55
2019-03-29T12:23:51.846Z,32.99
2019-03-29T12:24:52.138Z,32.73
2019-03-29T12:25:51.684Z,32.11
2019-03-29T12:26:55.006Z,31.01
2019-03-29T12:27:51.576Z,30.45
2019-03-29T12:28:51.574Z,28.50
2019-03-29T12:29:51.590Z,27.02
2019-03-29T12:30:52.557Z,27.77
2019-03-29T12:31:52.549Z,28.77
2019-03-29T12:32:51.896Z,29.31
2019-03-29T12:33:51.969Z,28.88
2019-03-29T12:34:51.561Z,28.22
2019-03-29T12:35:53.326Z,28.63
2019-03-29T12:36:52.814Z,28.38
2019-03-29T12:37:52.380Z,27.01
2019-03-29T12:38:51.927Z,26.32
2019-03-29T12:39:53.118Z,26.67
2019-03-29T12:40:51.898Z,27.41
2019-03-29T12:41:51.687Z,27.33
2019-03-29T12:42:52.203Z,27.80
2019-03-29T12:43:55.701Z,28.32
2019-03-29T12:44:51.597Z,28.40
2019-03-29T12:45:52.239Z,29.13
2019-03-29T12:46:51.463Z,30.21
2019-03-29T12:47:51.401Z,29.18
2019-03-29T12:48:51.448Z,28.70
2019-03-29T12:49:51.426Z,29.60
2019-03-29T12:50:51.378Z,30.99
2019-03-29T12:51:51.809Z,31.96
2019-03-29T12:52:51.352Z,32.59
2019-03-29T12:53:51.353Z,33.27
2019-03-29T12:54:52.399Z,33.55
2019-03-29T12:55:51.420Z,34.08
2019-03-29T12:56:52.453Z,34.27
2019-03-29T12:57:52.217Z,34.16
2019-03-29T12:58:52.462Z,33.82
2019-03-29T12:59:52.274Z,32.37
2019-03-29T13:00:51.962Z,30.69
2019-03-29T13:01:52.308Z,29.20
2019-03-29T13:02:52.140Z,28.68
2019-03-29T13:03:51.821Z,29.04
2019-03-29T13:04:51.972Z,29.89
2019-03-29T13:05:52.192Z,29.37
2019-03-29T13:06:53.124Z,28.85
2019-03-29T13:07:53.094Z,29.25